CheckWX is a tool to help pilots better visualize weather data.  It is not intended as a substitute for an official pre-flight weather briefing.

05:20:05 UTC

CYMT METAR
Chapais Airport
Chibougamau, Canada
Current

46 mins ago

CYMT 290434Z AUTO 32004KT 9SM OVC018 M17/M19 A3001 RMK SLP201
Observed
Jan-29 @ 04:34 UTC
Wind
  • 320° at 4 KTS
Visibility
9 SM
Flight Rules
MVFR
Cloud Levels
  • Overcast at 1,800' AGL
Temperature
-17°C / 1°F
Dewpoint
-19°C / -2°F
Humidity
85%
Altimeter
30.01" Hg
Pressure
1016.22 hPa
Previous

56 mins ago

CYMT 290424Z AUTO 32005KT 9SM -SN BKN020 M17/M19 A3001 RMK SLP202
Observed
Jan-29 @ 04:24 UTC
Wind
  • 320° at 5 KTS
Visibility
9 SM
Flight Rules
MVFR
Conditions
Light Snow
Cloud Levels
  • Broken at 2,000' AGL
Temperature
-17°C / 1°F
Dewpoint
-19°C / -2°F
Humidity
85%
Altimeter
30.01" Hg
Pressure
1016.22 hPa
Previous

1 hour ago

CYMT 290416Z AUTO 33003KT 300V020 9SM BKN020 M18/M19 A3001 RMK SLP203
Observed
Jan-29 @ 04:16 UTC
Wind
  • 330° at 3 KTS
Visibility
9 SM
Flight Rules
MVFR
Cloud Levels
  • Broken at 2,000' AGL
Temperature
-18°C / -0°F
Dewpoint
-19°C / -2°F
Humidity
92%
Altimeter
30.01" Hg
Pressure
1016.22 hPa